Time;durP1;ratioP1;P1;durP2;ratioP2;P2;SDS_P1;SDS_P2;PMS_P1;PMS_P2;Temp;Humidity;BMP_temperature;BMP_pressure;BME280_temperature;BME280_humidity;BME280_pressure;Samples;Min_cycle;Max_cycle;Signal;HPM_P1;HPM_P2
2023/01/30 00:01:00;;;;;;;38.13;19.38;;;;;;;;;;6125722;28;20118;-68
2023/01/30 00:04:03;;;;;;;55.00;26.30;;;;;;;;;;6127991;28;20055;-71
2023/01/30 00:07:05;;;;;;;80.90;34.03;;;;;;;;;;6128676;28;20055;-75
2023/01/30 00:10:07;;;;;;;45.85;22.27;;;;;;;;;;6129608;28;20063;-75
2023/01/30 00:13:09;;;;;;;37.38;19.30;;;;;;;;;;6125732;28;20063;-74
2023/01/30 00:16:10;;;;;;;39.53;20.02;;;;;;;;;;6127484;28;20051;-74
2023/01/30 00:19:13;;;;;;;33.42;18.20;;;;;;;;;;6128016;28;20048;-76
2023/01/30 00:22:15;;;;;;;33.47;17.75;;;;;;;;;;6127575;29;20051;-74
2023/01/30 00:25:17;;;;;;;36.78;19.00;;;;;;;;;;6126938;28;20056;-75
2023/01/30 00:28:19;;;;;;;34.67;17.45;;;;;;;;;;6125497;28;20135;-75
2023/01/30 00:31:20;;;;;;;35.45;18.13;;;;;;;;;;6127327;28;20051;-76
2023/01/30 00:34:23;;;;;;;35.85;18.48;;;;;;;;;;6125911;29;20056;-74
2023/01/30 00:37:25;;;;;;;32.38;17.55;;;;;;;;;;6122386;28;20055;-73
2023/01/30 00:40:28;;;;;;;37.13;18.95;;;;;;;;;;6125165;29;20060;-76
2023/01/30 00:47:07;;;;;;;33.00;16.55;;;;;;;;;;6125504;28;20055;-73
2023/01/30 00:50:11;;;;;;;37.20;17.80;;;;;;;;;;6123555;28;20055;-70
2023/01/30 00:53:14;;;;;;;37.33;17.52;;;;;;;;;;6122468;28;20065;-74
2023/01/30 00:56:16;;;;;;;35.17;17.95;;;;;;;;;;6125780;29;20086;-72
2023/01/30 00:59:17;;;;;;;29.95;16.67;;;;;;;;;;6128593;28;20059;-73
2023/01/30 01:02:20;;;;;;;37.50;18.63;;;;;;;;;;6123713;28;20060;-71
2023/01/30 01:05:23;;;;;;;35.70;18.55;;;;;;;;;;6123406;28;20331;-73
2023/01/30 01:08:24;;;;;;;33.92;18.55;;;;;;;;;;6127765;28;20323;-72
2023/01/30 01:11:26;;;;;;;33.17;18.23;;;;;;;;;;6125199;28;20056;-72
2023/01/30 01:14:28;;;;;;;35.58;17.38;;;;;;;;;;6124706;28;20063;-70
2023/01/30 01:17:30;;;;;;;35.83;17.27;;;;;;;;;;6127257;28;20395;-72
2023/01/30 01:20:33;;;;;;;33.25;17.30;;;;;;;;;;6122950;28;20056;-71
2023/01/30 01:23:34;;;;;;;33.70;17.77;;;;;;;;;;6126487;28;20052;-74
2023/01/30 01:26:36;;;;;;;37.63;18.63;;;;;;;;;;6125003;28;20335;-73
2023/01/30 01:29:38;;;;;;;37.42;19.02;;;;;;;;;;6124207;29;20056;-72
2023/01/30 01:32:39;;;;;;;34.10;17.30;;;;;;;;;;6121954;28;20066;-67
2023/01/30 01:35:42;;;;;;;36.60;17.85;;;;;;;;;;6124719;29;20071;-71
2023/01/30 01:38:44;;;;;;;41.35;19.05;;;;;;;;;;6126021;28;20055;-71
2023/01/30 01:41:45;;;;;;;36.13;18.05;;;;;;;;;;6125282;29;20074;-73
2023/01/30 01:44:59;;;;;;;35.95;17.70;;;;;;;;;;6122916;28;20047;-72
2023/01/30 01:48:06;;;;;;;35.55;18.05;;;;;;;;;;6122654;28;20073;-67
2023/01/30 01:51:12;;;;;;;38.05;18.58;;;;;;;;;;6123874;28;20071;-72
2023/01/30 01:54:17;;;;;;;31.77;17.42;;;;;;;;;;6124464;28;20089;-72
2023/01/30 01:57:24;;;;;;;34.40;18.75;;;;;;;;;;6119473;28;20098;-73
2023/01/30 02:00:26;;;;;;;39.28;19.38;;;;;;;;;;6125490;28;20055;-67
2023/01/30 02:03:30;;;;;;;41.95;19.30;;;;;;;;;;6121120;28;20052;-72
2023/01/30 02:06:33;;;;;;;;;;;;;;;;;;6125251;28;20071;-72
2023/01/30 02:09:35;;;;;;;33.30;17.60;;;;;;;;;;6124882;29;20057;-70
2023/01/30 02:12:37;;;;;;;36.47;18.90;;;;;;;;;;6125887;28;20051;-71
2023/01/30 02:15:39;;;;;;;36.17;18.65;;;;;;;;;;6127405;28;20213;-71
2023/01/30 02:18:42;;;;;;;37.80;18.42;;;;;;;;;;6129297;28;20051;-72
2023/01/30 02:22:39;;;;;;;44.72;18.75;;;;;;;;;;6126872;28;20047;-72
2023/01/30 02:26:08;;;;;;;44.10;21.42;;;;;;;;;;6053617;29;20053;-71
2023/01/30 02:29:29;;;;;;;41.70;20.25;;;;;;;;;;6039014;29;20057;-71
2023/01/30 02:32:34;;;;;;;45.40;22.05;;;;;;;;;;6051991;29;20053;-72
2023/01/30 02:35:42;;;;;;;38.08;20.25;;;;;;;;;;6057346;29;20101;-71
2023/01/30 02:38:49;;;;;;;45.78;21.27;;;;;;;;;;6055319;29;20093;-72
2023/01/30 02:41:59;;;;;;;41.03;20.92;;;;;;;;;;6052181;29;20089;-72
2023/01/30 02:45:07;;;;;;;39.83;21.27;;;;;;;;;;6052006;29;20057;-72
2023/01/30 02:48:13;;;;;;;39.28;20.42;;;;;;;;;;6053237;29;20069;-72
2023/01/30 02:51:19;;;;;;;43.35;20.70;;;;;;;;;;6054966;29;20052;-72
2023/01/30 02:54:21;;;;;;;41.72;21.00;;;;;;;;;;6056105;29;20061;-72
2023/01/30 02:57:24;;;;;;;41.22;20.70;;;;;;;;;;6052403;29;20197;-69
2023/01/30 03:00:36;;;;;;;39.88;19.58;;;;;;;;;;6112098;28;20123;-72
2023/01/30 03:04:00;;;;;;;41.00;19.23;;;;;;;;;;6129899;28;21645;-71
2023/01/30 03:07:14;;;;;;;41.35;21.00;;;;;;;;;;6128387;28;20111;-70
2023/01/30 03:10:22;;;;;;;39.43;19.83;;;;;;;;;;6126925;28;20083;-72
2023/01/30 03:13:30;;;;;;;39.03;18.52;;;;;;;;;;6126253;28;20056;-73
2023/01/30 03:16:33;;;;;;;39.75;20.88;;;;;;;;;;6128261;28;20915;-69
2023/01/30 03:19:36;;;;;;;40.50;20.60;;;;;;;;;;6125435;29;20059;-72
2023/01/30 03:22:38;;;;;;;39.17;19.70;;;;;;;;;;6126759;28;20467;-72
2023/01/30 03:25:41;;;;;;;35.33;19.83;;;;;;;;;;6125864;28;20056;-72
2023/01/30 03:28:43;;;;;;;36.05;18.92;;;;;;;;;;6126511;28;20078;-73
2023/01/30 03:31:45;;;;;;;42.78;20.35;;;;;;;;;;6126771;28;20063;-71
2023/01/30 03:34:48;;;;;;;37.72;20.92;;;;;;;;;;6127727;28;20104;-72
2023/01/30 03:37:49;;;;;;;36.28;19.02;;;;;;;;;;6127169;29;20158;-73
2023/01/30 03:40:51;;;;;;;40.03;19.90;;;;;;;;;;6123918;28;20068;-70
2023/01/30 03:43:53;;;;;;;39.92;19.60;;;;;;;;;;6125842;28;20682;-72
2023/01/30 03:46:54;;;;;;;41.95;20.23;;;;;;;;;;6128510;28;20115;-72
2023/01/30 03:49:57;;;;;;;38.00;20.60;;;;;;;;;;6125577;29;20063;-73
2023/01/30 03:52:59;;;;;;;38.28;19.15;;;;;;;;;;6123401;28;20224;-72
2023/01/30 03:56:01;;;;;;;40.22;21.20;;;;;;;;;;6126496;28;20379;-74
2023/01/30 03:59:02;;;;;;;38.92;20.15;;;;;;;;;;6129238;28;20170;-70
2023/01/30 04:02:04;;;;;;;42.50;20.75;;;;;;;;;;6125978;29;20059;-71
2023/01/30 04:05:07;;;;;;;42.83;20.27;;;;;;;;;;6124452;28;20055;-73
2023/01/30 04:08:09;;;;;;;41.97;20.65;;;;;;;;;;6127390;29;20075;-69
2023/01/30 04:11:11;;;;;;;40.90;20.83;;;;;;;;;;6125583;28;20070;-71
2023/01/30 04:14:13;;;;;;;43.15;23.45;;;;;;;;;;6125154;28;20131;-72
2023/01/30 04:17:14;;;;;;;46.00;22.27;;;;;;;;;;6126952;28;20052;-73
2023/01/30 04:20:19;;;;;;;48.08;24.67;;;;;;;;;;6128815;29;20051;-73
2023/01/30 04:23:20;;;;;;;;;;;;;;;;;;6125409;28;20059;-73
2023/01/30 04:26:22;;;;;;;40.83;22.30;;;;;;;;;;6126180;28;19950;-72
2023/01/30 04:29:23;;;;;;;46.92;24.50;;;;;;;;;;6125996;28;20059;-71
2023/01/30 04:32:26;;;;;;;47.25;24.65;;;;;;;;;;6126064;29;20064;-72
2023/01/30 04:35:29;;;;;;;47.95;22.90;;;;;;;;;;6124248;28;20100;-72
2023/01/30 04:38:31;;;;;;;48.95;24.92;;;;;;;;;;6123192;28;20067;-72
2023/01/30 04:41:33;;;;;;;49.40;25.35;;;;;;;;;;6126548;28;20059;-73
2023/01/30 04:44:34;;;;;;;45.65;25.50;;;;;;;;;;6126323;28;20055;-72
2023/01/30 04:47:36;;;;;;;49.28;24.63;;;;;;;;;;6126315;28;20139;-72
2023/01/30 04:50:39;;;;;;;48.40;26.42;;;;;;;;;;6124869;28;20347;-73
2023/01/30 04:53:41;;;;;;;49.10;25.47;;;;;;;;;;6126907;28;20059;-73
2023/01/30 04:56:43;;;;;;;48.63;24.90;;;;;;;;;;6123664;28;20059;-73
2023/01/30 04:59:44;;;;;;;47.13;25.52;;;;;;;;;;6123670;28;20070;-72
2023/01/30 05:02:46;;;;;;;49.42;25.92;;;;;;;;;;6120610;28;20086;-72
2023/01/30 05:05:49;;;;;;;44.58;24.40;;;;;;;;;;6127201;28;20047;-73
2023/01/30 05:08:52;;;;;;;55.58;26.55;;;;;;;;;;6126479;28;21182;-72
2023/01/30 05:11:53;;;;;;;51.22;25.40;;;;;;;;;;6125614;29;20150;-72
2023/01/30 05:14:55;;;;;;;43.38;24.17;;;;;;;;;;6127532;28;20063;-73
2023/01/30 05:17:57;;;;;;;49.15;25.92;;;;;;;;;;6128084;28;20055;-70
2023/01/30 05:21:05;;;;;;;50.17;26.73;;;;;;;;;;6121357;28;20056;-71
2023/01/30 05:24:07;;;;;;;50.55;24.65;;;;;;;;;;6125229;29;20236;-73
2023/01/30 05:27:09;;;;;;;48.22;26.92;;;;;;;;;;6125418;28;20066;-69
2023/01/30 05:30:11;;;;;;;46.85;24.40;;;;;;;;;;6124757;28;20059;-72
2023/01/30 05:33:13;;;;;;;47.58;26.40;;;;;;;;;;6124110;28;20075;-73
2023/01/30 05:36:17;;;;;;;51.60;25.38;;;;;;;;;;6121382;29;20063;-70
2023/01/30 05:39:19;;;;;;;48.67;25.20;;;;;;;;;;6121999;28;20706;-72
2023/01/30 05:42:21;;;;;;;47.00;24.98;;;;;;;;;;6121586;28;20051;-70
2023/01/30 05:45:22;;;;;;;49.75;25.67;;;;;;;;;;6121167;28;20059;-67
2023/01/30 05:48:25;;;;;;;49.22;24.73;;;;;;;;;;6129033;28;20056;-73
2023/01/30 05:51:28;;;;;;;58.47;25.70;;;;;;;;;;6126740;28;20063;-72
2023/01/30 05:54:30;;;;;;;50.10;25.77;;;;;;;;;;6126163;28;20147;-72
2023/01/30 05:57:31;;;;;;;50.75;24.73;;;;;;;;;;6130118;28;20063;-73
2023/01/30 06:00:33;;;;;;;48.63;25.00;;;;;;;;;;6129060;28;20510;-71
2023/01/30 06:03:35;;;;;;;49.92;25.75;;;;;;;;;;6128671;28;20260;-73
2023/01/30 06:06:38;;;;;;;47.75;23.77;;;;;;;;;;6124418;28;20177;-69
2023/01/30 06:09:40;;;;;;;48.60;23.95;;;;;;;;;;6127538;28;20063;-66
2023/01/30 06:12:42;;;;;;;50.75;23.60;;;;;;;;;;6128418;28;20063;-69
2023/01/30 06:15:44;;;;;;;42.00;22.63;;;;;;;;;;6126466;28;20052;-69
2023/01/30 06:18:46;;;;;;;48.03;24.45;;;;;;;;;;6128443;28;20150;-67
2023/01/30 06:21:49;;;;;;;47.65;23.88;;;;;;;;;;6132056;29;20111;-69
2023/01/30 06:24:51;;;;;;;51.85;22.38;;;;;;;;;;6129377;28;20047;-69
2023/01/30 06:27:53;;;;;;;48.08;23.48;;;;;;;;;;6125757;29;20071;-69
2023/01/30 06:30:55;;;;;;;48.33;23.33;;;;;;;;;;6124438;28;20130;-70
2023/01/30 06:33:56;;;;;;;46.55;23.42;;;;;;;;;;6128042;28;20083;-70
2023/01/30 06:37:00;;;;;;;46.13;23.42;;;;;;;;;;6126502;28;21375;-70
2023/01/30 06:40:01;;;;;;;48.20;23.02;;;;;;;;;;6127152;28;20060;-69
2023/01/30 06:43:04;;;;;;;48.08;24.50;;;;;;;;;;6126321;28;20048;-70
2023/01/30 06:46:05;;;;;;;45.35;23.58;;;;;;;;;;6127839;28;20074;-68
2023/01/30 06:49:07;;;;;;;50.20;23.35;;;;;;;;;;6128540;28;20114;-68
2023/01/30 06:52:10;;;;;;;45.28;23.33;;;;;;;;;;6126061;29;20060;-69
2023/01/30 06:55:13;;;;;;;43.72;23.80;;;;;;;;;;6127727;28;20094;-70
2023/01/30 06:58:15;;;;;;;44.88;24.02;;;;;;;;;;6125389;28;20055;-70
2023/01/30 07:01:17;;;;;;;50.13;24.10;;;;;;;;;;6127598;28;20126;-69
2023/01/30 07:04:19;;;;;;;47.88;24.02;;;;;;;;;;6129959;28;20067;-69
2023/01/30 07:07:22;;;;;;;45.80;24.10;;;;;;;;;;6125475;28;20227;-70
2023/01/30 07:10:25;;;;;;;43.63;23.08;;;;;;;;;;6126114;29;20055;-70
2023/01/30 07:13:26;;;;;;;45.05;22.08;;;;;;;;;;6127345;28;20126;-68
2023/01/30 07:16:29;;;;;;;45.58;24.73;;;;;;;;;;6126242;28;20063;-70
2023/01/30 07:19:31;;;;;;;43.47;23.40;;;;;;;;;;6129858;28;20337;-71
2023/01/30 07:22:34;;;;;;;47.55;25.30;;;;;;;;;;6125179;28;20082;-70
2023/01/30 07:25:36;;;;;;;45.83;23.77;;;;;;;;;;6119746;28;20059;-69
2023/01/30 07:28:37;;;;;;;45.78;24.83;;;;;;;;;;6126523;28;20071;-70
2023/01/30 07:31:39;;;;;;;43.33;24.58;;;;;;;;;;6124646;28;20044;-70
2023/01/30 07:34:41;;;;;;;45.20;24.65;;;;;;;;;;6125469;28;20062;-70
2023/01/30 07:37:46;;;;;;;43.45;24.10;;;;;;;;;;6127534;28;20475;-70
2023/01/30 07:40:48;;;;;;;53.58;25.08;;;;;;;;;;6125527;28;20063;-69
2023/01/30 07:43:49;;;;;;;48.90;24.88;;;;;;;;;;6128729;28;20195;-69
2023/01/30 07:46:51;;;;;;;47.00;23.92;;;;;;;;;;6125177;28;20108;-70
2023/01/30 07:49:53;;;;;;;47.72;25.65;;;;;;;;;;6130383;28;20051;-69
2023/01/30 07:52:56;;;;;;;48.90;23.73;;;;;;;;;;6124649;28;20291;-70
2023/01/30 07:55:58;;;;;;;42.17;24.17;;;;;;;;;;6125060;28;20056;-71
2023/01/30 07:59:00;;;;;;;41.28;23.75;;;;;;;;;;6126508;28;20052;-67
2023/01/30 08:02:01;;;;;;;48.22;26.65;;;;;;;;;;6128335;28;20143;-70
2023/01/30 08:05:03;;;;;;;54.55;26.35;;;;;;;;;;6128578;28;20064;-71
2023/01/30 08:08:06;;;;;;;49.72;24.83;;;;;;;;;;6127024;29;20060;-71
2023/01/30 08:11:08;;;;;;;43.78;24.10;;;;;;;;;;6126163;28;20264;-71
2023/01/30 08:14:10;;;;;;;44.17;24.13;;;;;;;;;;6130998;29;20055;-71
2023/01/30 08:17:12;;;;;;;52.58;23.73;;;;;;;;;;6127907;28;20115;-71
2023/01/30 08:20:16;;;;;;;40.38;21.17;;;;;;;;;;6125922;28;20108;-70
2023/01/30 08:23:20;;;;;;;40.72;21.30;;;;;;;;;;6124333;28;20059;-70
2023/01/30 08:26:21;;;;;;;42.03;21.75;;;;;;;;;;6127355;28;20067;-70
2023/01/30 08:29:25;;;;;;;36.60;20.73;;;;;;;;;;6124899;28;20054;-71
2023/01/30 08:32:27;;;;;;;37.03;20.35;;;;;;;;;;6126219;29;20074;-71
2023/01/30 08:35:28;;;;;;;42.50;21.10;;;;;;;;;;6127114;28;20059;-71
2023/01/30 08:38:31;;;;;;;36.60;20.27;;;;;;;;;;6123524;28;20063;-70
2023/01/30 08:41:33;;;;;;;36.85;19.75;;;;;;;;;;6125300;28;20074;-70
2023/01/30 08:44:35;;;;;;;36.45;19.08;;;;;;;;;;6123157;28;20040;-69
2023/01/30 08:47:37;;;;;;;38.10;19.50;;;;;;;;;;6125881;28;20048;-69
2023/01/30 08:50:38;;;;;;;34.72;19.98;;;;;;;;;;6124896;28;20557;-70
2023/01/30 08:53:41;;;;;;;35.20;19.45;;;;;;;;;;6126177;29;20066;-71
2023/01/30 08:56:43;;;;;;;37.53;18.73;;;;;;;;;;6123711;28;20058;-71
2023/01/30 08:59:45;;;;;;;28.98;17.73;;;;;;;;;;6126575;28;20061;-70
2023/01/30 09:02:47;;;;;;;34.88;17.48;;;;;;;;;;6126363;28;20115;-70
2023/01/30 09:05:54;;;;;;;36.45;19.52;;;;;;;;;;6124752;28;20324;-71
2023/01/30 09:08:58;;;;;;;33.63;16.90;;;;;;;;;;6124657;28;20070;-71
2023/01/30 09:12:00;;;;;;;;;;;;;;;;;;6128524;29;20055;-70
2023/01/30 09:15:02;;;;;;;33.30;16.75;;;;;;;;;;6126917;28;19970;-71
2023/01/30 09:18:04;;;;;;;36.80;18.25;;;;;;;;;;6125826;28;20062;-71
2023/01/30 09:21:06;;;;;;;35.08;17.25;;;;;;;;;;6126313;28;20079;-70
2023/01/30 09:24:09;;;;;;;32.08;17.13;;;;;;;;;;6128854;29;20066;-71
2023/01/30 09:27:11;;;;;;;30.98;18.08;;;;;;;;;;6132260;28;20102;-70
2023/01/30 09:30:13;;;;;;;31.77;18.52;;;;;;;;;;6132340;28;20047;-67
2023/01/30 09:33:19;;;;;;;35.60;18.48;;;;;;;;;;6130195;28;20087;-71
2023/01/30 09:36:20;;;;;;;31.35;17.45;;;;;;;;;;6129806;28;20139;-71
2023/01/30 09:39:23;;;;;;;33.63;17.42;;;;;;;;;;6129057;28;20059;-71
2023/01/30 09:42:36;;;;;;;28.67;17.15;;;;;;;;;;6128504;28;20099;-70
2023/01/30 09:45:43;;;;;;;29.88;17.25;;;;;;;;;;6130561;28;20048;-71
2023/01/30 09:48:53;;;;;;;37.20;18.25;;;;;;;;;;6128552;28;20063;-71
2023/01/30 09:52:05;;;;;;;34.00;16.67;;;;;;;;;;6132352;28;20066;-71
2023/01/30 09:55:17;;;;;;;30.55;16.58;;;;;;;;;;6129279;28;20055;-71
2023/01/30 09:58:21;;;;;;;38.15;16.92;;;;;;;;;;6132880;28;20381;-71
2023/01/30 10:01:27;;;;;;;30.65;16.30;;;;;;;;;;6127591;28;20048;-71
2023/01/30 10:04:32;;;;;;;36.83;17.38;;;;;;;;;;6128818;28;20054;-71
2023/01/30 10:07:54;;;;;;;31.83;16.38;;;;;;;;;;6132223;29;20043;-72
2023/01/30 10:11:01;;;;;;;32.55;17.58;;;;;;;;;;6128167;28;20055;-68
2023/01/30 10:14:25;;;;;;;34.72;17.52;;;;;;;;;;6128306;28;20063;-71
2023/01/30 10:17:33;;;;;;;32.70;17.23;;;;;;;;;;6130367;28;20351;-69
2023/01/30 10:20:41;;;;;;;33.83;17.30;;;;;;;;;;6128028;28;20063;-70
2023/01/30 10:23:51;;;;;;;33.63;18.02;;;;;;;;;;6132576;28;20339;-72
2023/01/30 10:26:54;;;;;;;40.90;19.38;;;;;;;;;;6130711;28;20056;-71
2023/01/30 10:29:58;;;;;;;34.42;17.55;;;;;;;;;;6129563;28;20055;-71
2023/01/30 10:33:04;;;;;;;33.33;17.05;;;;;;;;;;6127442;28;20070;-70
2023/01/30 10:36:10;;;;;;;34.13;17.38;;;;;;;;;;6128080;28;20048;-71
2023/01/30 10:39:22;;;;;;;33.55;16.88;;;;;;;;;;6130412;28;20062;-71
2023/01/30 10:42:29;;;;;;;37.20;17.48;;;;;;;;;;6129961;28;20094;-71
2023/01/30 10:45:36;;;;;;;31.65;17.55;;;;;;;;;;6129798;28;20243;-72
2023/01/30 10:48:51;;;;;;;32.08;17.90;;;;;;;;;;6128428;28;20083;-70
2023/01/30 10:51:59;;;;;;;33.88;17.70;;;;;;;;;;6127311;28;20055;-69
2023/01/30 10:55:07;;;;;;;36.55;18.75;;;;;;;;;;6130501;28;20323;-71
2023/01/30 10:58:16;;;;;;;34.63;18.35;;;;;;;;;;6127682;29;20573;-71
2023/01/30 11:01:22;;;;;;;37.78;20.15;;;;;;;;;;6129984;28;20067;-71
2023/01/30 11:04:28;;;;;;;40.05;20.73;;;;;;;;;;6131468;28;20051;-71
2023/01/30 11:07:31;;;;;;;38.20;20.73;;;;;;;;;;6126268;28;20046;-71
2023/01/30 11:10:33;;;;;;;38.57;21.17;;;;;;;;;;6124800;28;20048;-70
2023/01/30 11:13:36;;;;;;;41.50;21.45;;;;;;;;;;6129179;28;20466;-71
2023/01/30 11:16:43;;;;;;;37.03;20.95;;;;;;;;;;6125721;28;20064;-70
2023/01/30 11:19:45;;;;;;;37.45;21.42;;;;;;;;;;6128187;28;20048;-69
2023/01/30 11:22:49;;;;;;;39.38;22.70;;;;;;;;;;6128679;28;20306;-71
2023/01/30 11:25:52;;;;;;;41.03;22.15;;;;;;;;;;6128436;28;20770;-71
2023/01/30 11:28:55;;;;;;;40.22;21.92;;;;;;;;;;6128006;28;20044;-71
2023/01/30 11:32:01;;;;;;;39.22;21.13;;;;;;;;;;6127573;29;20227;-71
2023/01/30 11:35:21;;;;;;;40.17;22.73;;;;;;;;;;6126947;28;20102;-75
2023/01/30 11:38:24;;;;;;;35.67;21.45;;;;;;;;;;6131632;28;20111;-71
2023/01/30 11:41:26;;;;;;;30.23;18.35;;;;;;;;;;6128742;28;20048;-72
2023/01/30 11:44:31;;;;;;;41.30;21.95;;;;;;;;;;6125391;28;20055;-71
2023/01/30 11:47:33;;;;;;;34.55;19.17;;;;;;;;;;6127952;28;21159;-72
2023/01/30 11:50:39;;;;;;;36.50;20.17;;;;;;;;;;6126342;28;21151;-71
2023/01/30 11:53:44;;;;;;;35.28;19.90;;;;;;;;;;6126897;28;20050;-69
2023/01/30 11:56:49;;;;;;;37.03;19.25;;;;;;;;;;6126992;28;20087;-71
2023/01/30 11:59:57;;;;;;;34.70;19.70;;;;;;;;;;6125051;28;20331;-70
2023/01/30 12:03:05;;;;;;;32.70;19.92;;;;;;;;;;6125765;28;21296;-72
2023/01/30 12:06:06;;;;;;;32.67;19.20;;;;;;;;;;6126268;28;20055;-68
2023/01/30 12:09:34;;;;;;;30.90;18.63;;;;;;;;;;6127259;28;20052;-72
2023/01/30 12:12:43;;;;;;;33.75;18.25;;;;;;;;;;6126191;28;20043;-71
2023/01/30 12:15:49;;;;;;;31.20;17.17;;;;;;;;;;6125689;28;20059;-71
2023/01/30 12:18:56;;;;;;;31.92;17.17;;;;;;;;;;6124869;28;20059;-72
2023/01/30 12:22:02;;;;;;;35.35;18.67;;;;;;;;;;6125511;28;20111;-70
2023/01/30 12:25:11;;;;;;;31.77;17.25;;;;;;;;;;6126035;28;20048;-71
2023/01/30 12:28:15;;;;;;;30.13;17.55;;;;;;;;;;6126783;28;20058;-71
2023/01/30 12:31:20;;;;;;;28.08;16.70;;;;;;;;;;6123854;28;20351;-74
2023/01/30 12:34:23;;;;;;;33.65;17.27;;;;;;;;;;6124634;28;20055;-73
2023/01/30 12:37:43;;;;;;;35.53;18.40;;;;;;;;;;6124269;28;20066;-72
2023/01/30 12:40:52;;;;;;;28.90;15.50;;;;;;;;;;6124832;28;20067;-72
2023/01/30 12:44:15;;;;;;;30.48;16.55;;;;;;;;;;6126893;28;20044;-74
2023/01/30 12:47:37;;;;;;;26.65;15.50;;;;;;;;;;6127149;28;20063;-70
2023/01/30 12:50:47;;;;;;;29.27;15.95;;;;;;;;;;6126110;28;20147;-70
2023/01/30 12:53:56;;;;;;;27.27;15.13;;;;;;;;;;6125050;28;20355;-70
2023/01/30 12:57:04;;;;;;;26.75;15.07;;;;;;;;;;6121360;28;20051;-70
2023/01/30 13:00:20;;;;;;;27.42;15.52;;;;;;;;;;6125712;28;20059;-70
2023/01/30 13:03:33;;;;;;;24.83;15.13;;;;;;;;;;6124190;28;20067;-70
2023/01/30 13:06:49;;;;;;;28.20;15.63;;;;;;;;;;6123976;28;20071;-69
2023/01/30 13:10:00;;;;;;;27.65;14.52;;;;;;;;;;6126447;28;20534;-68
2023/01/30 13:13:08;;;;;;;25.00;14.52;;;;;;;;;;6127705;28;20062;-74
2023/01/30 13:16:17;;;;;;;44.38;26.98;;;;;;;;;;6126549;28;20161;-77
2023/01/30 13:19:23;;;;;;;29.92;16.88;;;;;;;;;;6127942;28;20203;-76
2023/01/30 13:22:29;;;;;;;27.23;16.13;;;;;;;;;;6127017;28;20090;-75
2023/01/30 13:25:37;;;;;;;27.30;15.43;;;;;;;;;;6125130;28;20119;-69
2023/01/30 13:28:41;;;;;;;27.23;14.20;;;;;;;;;;6122851;28;20054;-70
2023/01/30 13:31:48;;;;;;;28.25;15.25;;;;;;;;;;6128475;28;20111;-71
2023/01/30 13:34:55;;;;;;;25.30;14.55;;;;;;;;;;6126400;28;20048;-69
2023/01/30 13:37:59;;;;;;;28.25;14.63;;;;;;;;;;6124408;28;20059;-69
2023/01/30 13:41:00;;;;;;;;;;;;;;;;;;6125771;28;20235;-69
2023/01/30 13:44:04;;;;;;;25.23;13.23;;;;;;;;;;6129049;28;20199;-70
2023/01/30 13:47:08;;;;;;;;;;;;;;;;;;6127327;28;20054;-70
2023/01/30 13:50:23;;;;;;;24.23;13.77;;;;;;;;;;6124690;28;19982;-69
2023/01/30 13:53:30;;;;;;;24.58;14.27;;;;;;;;;;6124832;28;20247;-70
2023/01/30 13:56:36;;;;;;;23.10;12.70;;;;;;;;;;6123016;28;20259;-70
2023/01/30 14:00:20;;;;;;;21.23;13.23;;;;;;;;;;6125370;28;20291;-70
2023/01/30 14:03:30;;;;;;;24.67;13.55;;;;;;;;;;6126365;28;20112;-71
2023/01/30 14:06:37;;;;;;;24.02;13.77;;;;;;;;;;6126452;28;20099;-70
2023/01/30 14:09:41;;;;;;;20.00;12.40;;;;;;;;;;6134459;29;20120;-71
2023/01/30 14:12:45;;;;;;;25.15;14.40;;;;;;;;;;6125887;28;20061;-69
2023/01/30 14:15:54;;;;;;;23.10;13.55;;;;;;;;;;6130454;28;20332;-70
2023/01/30 14:18:55;;;;;;;24.30;13.90;;;;;;;;;;6127020;28;20051;-71
2023/01/30 14:22:00;;;;;;;21.85;13.50;;;;;;;;;;6129073;28;20056;-70
2023/01/30 14:25:34;;;;;;;22.40;13.43;;;;;;;;;;6131518;28;20099;-69
2023/01/30 14:28:46;;;;;;;24.02;14.00;;;;;;;;;;6124810;28;20048;-70
2023/01/30 14:31:49;;;;;;;22.90;12.82;;;;;;;;;;6130005;28;20044;-72
2023/01/30 14:35:16;;;;;;;21.63;12.55;;;;;;;;;;6126746;29;20127;-69
2023/01/30 14:38:20;;;;;;;18.42;11.05;;;;;;;;;;6131834;28;20055;-72
2023/01/30 14:41:26;;;;;;;18.85;11.35;;;;;;;;;;6129258;29;20063;-71
2023/01/30 14:44:59;;;;;;;19.80;11.65;;;;;;;;;;6129702;28;20059;-70
2023/01/30 14:48:27;;;;;;;20.70;12.57;;;;;;;;;;6129130;29;20057;-71
2023/01/30 14:51:32;;;;;;;22.85;13.20;;;;;;;;;;6127652;28;20391;-71
2023/01/30 14:54:40;;;;;;;18.02;11.07;;;;;;;;;;6127290;28;20094;-71
2023/01/30 14:57:51;;;;;;;19.95;11.60;;;;;;;;;;6129260;28;20099;-70
2023/01/30 15:00:57;;;;;;;18.13;10.88;;;;;;;;;;6130580;29;20056;-70
2023/01/30 15:03:59;;;;;;;16.83;10.52;;;;;;;;;;6127233;28;20197;-69
2023/01/30 15:07:04;;;;;;;17.08;10.52;;;;;;;;;;6104711;28;20107;-70
2023/01/30 15:10:17;;;;;;;18.42;10.15;;;;;;;;;;6126632;28;20106;-70
2023/01/30 15:13:41;;;;;;;19.80;11.27;;;;;;;;;;6127430;28;20150;-69
2023/01/30 15:17:09;;;;;;;28.05;17.42;;;;;;;;;;6125151;28;20063;-71
2023/01/30 15:20:34;;;;;;;53.22;27.70;;;;;;;;;;6129202;28;20406;-71
2023/01/30 15:23:55;;;;;;;46.03;26.80;;;;;;;;;;6128115;28;20066;-70
2023/01/30 15:27:05;;;;;;;93.57;50.72;;;;;;;;;;6129086;28;20051;-70
2023/01/30 15:30:21;;;;;;;43.25;24.00;;;;;;;;;;6130957;28;20052;-71
2023/01/30 15:33:25;;;;;;;23.70;14.95;;;;;;;;;;6128821;28;20048;-70
2023/01/30 15:36:27;;;;;;;;;;;;;;;;;;6129042;28;20118;-69
2023/01/30 15:39:28;;;;;;;19.77;11.70;;;;;;;;;;6123704;28;19938;-70
2023/01/30 15:42:31;;;;;;;23.23;12.23;;;;;;;;;;6123441;29;20275;-69
2023/01/30 15:45:40;;;;;;;20.13;11.95;;;;;;;;;;6126748;28;20059;-71
2023/01/30 15:48:52;;;;;;;22.63;11.38;;;;;;;;;;6128726;28;20063;-70
2023/01/30 15:51:53;;;;;;;19.90;11.68;;;;;;;;;;6128739;28;20059;-70
2023/01/30 15:54:57;;;;;;;18.88;11.60;;;;;;;;;;6126434;28;20063;-72
2023/01/30 15:58:03;;;;;;;22.17;12.50;;;;;;;;;;6125939;28;20312;-71
2023/01/30 16:01:05;;;;;;;20.75;12.93;;;;;;;;;;6126175;28;20056;-71
2023/01/30 16:04:26;;;;;;;21.45;12.00;;;;;;;;;;6125081;29;20055;-72
2023/01/30 16:07:27;;;;;;;23.42;12.25;;;;;;;;;;6128633;28;20051;-71
2023/01/30 16:10:30;;;;;;;22.08;13.35;;;;;;;;;;6128445;28;20353;-72
2023/01/30 16:13:35;;;;;;;27.67;12.93;;;;;;;;;;6126921;28;20122;-72
2023/01/30 16:16:37;;;;;;;24.05;13.68;;;;;;;;;;6123699;28;20112;-70
2023/01/30 16:19:39;;;;;;;31.50;14.25;;;;;;;;;;6126206;28;20059;-72
2023/01/30 16:22:44;;;;;;;25.80;14.15;;;;;;;;;;6125269;28;20070;-71
2023/01/30 16:25:47;;;;;;;30.02;13.32;;;;;;;;;;6130344;28;20059;-72
2023/01/30 16:28:51;;;;;;;23.92;13.85;;;;;;;;;;6127659;28;20054;-72
2023/01/30 16:31:54;;;;;;;23.17;14.48;;;;;;;;;;6123072;28;20051;-71
2023/01/30 16:35:17;;;;;;;27.00;14.60;;;;;;;;;;6125742;28;20051;-71
2023/01/30 16:38:43;;;;;;;25.77;14.55;;;;;;;;;;6124267;28;20131;-72
2023/01/30 16:41:47;;;;;;;29.15;15.35;;;;;;;;;;6124185;29;20047;-71
2023/01/30 16:44:50;;;;;;;29.98;14.40;;;;;;;;;;6125015;28;20066;-71
2023/01/30 16:47:51;;;;;;;26.60;14.43;;;;;;;;;;6126045;28;20099;-71
2023/01/30 16:51:10;;;;;;;27.35;14.45;;;;;;;;;;6124457;28;20220;-72
2023/01/30 16:54:18;;;;;;;24.70;12.68;;;;;;;;;;6119381;28;20209;-68
2023/01/30 16:57:30;;;;;;;24.52;13.40;;;;;;;;;;6126184;28;20048;-68
2023/01/30 17:00:35;;;;;;;25.42;12.77;;;;;;;;;;6126131;28;20051;-68
2023/01/30 17:03:38;;;;;;;28.83;13.77;;;;;;;;;;6122604;28;20103;-69
2023/01/30 17:06:41;;;;;;;34.13;15.02;;;;;;;;;;6121351;28;20055;-69
2023/01/30 17:09:45;;;;;;;27.02;13.43;;;;;;;;;;6126938;28;20086;-68
2023/01/30 17:12:48;;;;;;;26.10;13.45;;;;;;;;;;6126025;28;20063;-70
2023/01/30 17:15:51;;;;;;;26.20;13.15;;;;;;;;;;6127721;28;20119;-69
2023/01/30 17:18:54;;;;;;;26.98;12.90;;;;;;;;;;6125641;28;20052;-69
2023/01/30 17:21:58;;;;;;;27.08;12.77;;;;;;;;;;6126340;28;20132;-69
2023/01/30 17:25:02;;;;;;;28.10;12.48;;;;;;;;;;6126640;28;20270;-69
2023/01/30 17:28:05;;;;;;;24.92;13.55;;;;;;;;;;6126718;29;20216;-69
2023/01/30 17:31:10;;;;;;;27.27;13.25;;;;;;;;;;6118820;28;20352;-69
2023/01/30 17:34:12;;;;;;;23.85;11.70;;;;;;;;;;6126643;28;20059;-69
2023/01/30 17:37:15;;;;;;;24.45;11.82;;;;;;;;;;6126115;28;20235;-69
2023/01/30 17:40:18;;;;;;;24.03;11.80;;;;;;;;;;6125105;28;20288;-69
2023/01/30 17:43:20;;;;;;;25.92;12.68;;;;;;;;;;6126901;29;20059;-69
2023/01/30 17:46:32;;;;;;;26.75;12.35;;;;;;;;;;6129779;28;20056;-69
2023/01/30 17:49:33;;;;;;;25.67;12.65;;;;;;;;;;6132057;29;20344;-70
2023/01/30 17:52:35;;;;;;;28.98;11.95;;;;;;;;;;6128505;28;20059;-69
2023/01/30 17:55:37;;;;;;;26.80;12.60;;;;;;;;;;6132032;28;20052;-68
2023/01/30 17:58:38;;;;;;;27.13;11.52;;;;;;;;;;6129481;28;20105;-69
2023/01/30 18:01:42;;;;;;;26.05;12.27;;;;;;;;;;6129449;28;20063;-69
2023/01/30 18:04:44;;;;;;;29.77;12.02;;;;;;;;;;6128068;28;20074;-67